createdAt,value
2019-03-03T00:00:28.098Z,40.13
2019-03-03T00:02:56.725Z,38.93
2019-03-03T00:05:25.363Z,36.17
2019-03-03T00:07:54.163Z,37.47
2019-03-03T00:10:22.658Z,35.07
2019-03-03T00:12:51.358Z,31.83
2019-03-03T00:15:20.037Z,40.27
2019-03-03T00:17:48.539Z,34.30
2019-03-03T00:20:17.176Z,37.83
2019-03-03T00:22:46.029Z,36.70
2019-03-03T00:25:15.666Z,32.70
2019-03-03T00:27:45.606Z,36.10
2019-03-03T00:30:16.348Z,34.93
2019-03-03T00:32:45.184Z,37.00
2019-03-03T00:35:14.246Z,34.37
2019-03-03T00:37:44.555Z,38.03
2019-03-03T00:40:27.739Z,35.77
2019-03-03T00:43:13.315Z,34.23
2019-03-03T00:46:01.549Z,33.77
2019-03-03T00:48:47.203Z,38.23
2019-03-03T00:51:35.819Z,34.47
2019-03-03T00:54:23.895Z,35.97
2019-03-03T00:56:54.099Z,34.47
2019-03-03T01:02:08.848Z,39.83
2019-03-03T01:04:44.803Z,41.17
2019-03-03T01:07:15.140Z,40.33
2019-03-03T01:09:45.415Z,36.57
2019-03-03T01:12:15.987Z,37.97
2019-03-03T01:14:49.260Z,36.10
2019-03-03T01:17:35.942Z,38.87
2019-03-03T01:20:08.603Z,35.37
2019-03-03T01:22:47.665Z,38.47
2019-03-03T01:25:16.274Z,37.50
2019-03-03T01:27:44.838Z,33.63
2019-03-03T01:30:13.972Z,38.93
2019-03-03T01:32:42.642Z,38.33
2019-03-03T01:35:11.630Z,37.77
2019-03-03T01:37:40.082Z,34.60
2019-03-03T01:40:10.748Z,31.15
2019-03-03T01:42:39.390Z,30.27
2019-03-03T01:45:12.983Z,32.37
2019-03-03T01:47:41.616Z,32.07
2019-03-03T01:50:13.913Z,34.00
2019-03-03T01:52:42.598Z,35.67
2019-03-03T01:55:12.703Z,36.63
2019-03-03T01:57:41.337Z,40.40
2019-03-03T02:00:24.287Z,33.43
2019-03-03T02:02:53.053Z,36.23
2019-03-03T02:05:21.693Z,32.63
2019-03-03T02:07:50.372Z,33.00
2019-03-03T02:10:24.012Z,28.93
2019-03-03T02:12:52.699Z,33.83
2019-03-03T02:15:22.036Z,33.40
2019-03-03T02:17:50.754Z,32.73
2019-03-03T02:20:19.313Z,30.20
2019-03-03T02:22:47.967Z,36.10
2019-03-03T02:25:16.591Z,33.53
2019-03-03T02:27:45.090Z,44.00
2019-03-03T02:30:16.863Z,34.20
2019-03-03T02:32:46.150Z,37.83
2019-03-03T02:35:15.181Z,33.90
2019-03-03T02:37:49.905Z,30.43
2019-03-03T02:40:20.097Z,32.10
2019-03-03T02:42:48.736Z,29.53
2019-03-03T02:45:19.550Z,31.77
2019-03-03T02:47:48.113Z,33.47
2019-03-03T02:50:17.046Z,36.77
2019-03-03T02:52:45.716Z,31.10
2019-03-03T02:55:15.846Z,30.37
2019-03-03T02:57:44.426Z,31.17
2019-03-03T03:00:18.703Z,33.63
2019-03-03T03:02:54.740Z,35.97
2019-03-03T03:05:37.942Z,32.50
2019-03-03T03:08:08.221Z,29.63
2019-03-03T03:10:54.641Z,34.47
2019-03-03T03:13:42.616Z,33.80
2019-03-03T03:16:16.068Z,31.37
2019-03-03T03:18:52.037Z,30.40
2019-03-03T03:21:22.203Z,41.50
2019-03-03T03:23:52.398Z,29.63
2019-03-03T03:26:28.717Z,35.77
2019-03-03T03:29:14.026Z,28.93
2019-03-03T03:31:50.115Z,32.37
2019-03-03T03:34:25.800Z,30.63
2019-03-03T03:37:02.046Z,30.67
2019-03-03T03:39:41.481Z,35.35
2019-03-03T03:42:28.013Z,31.70
2019-03-03T03:45:00.706Z,30.25
2019-03-03T03:47:47.599Z,35.52
2019-03-03T03:50:17.811Z,34.78
2019-03-03T03:53:00.345Z,38.13
2019-03-03T03:55:31.724Z,34.88
2019-03-03T03:58:04.517Z,33.00
2019-03-03T04:00:41.608Z,35.35
2019-03-03T04:03:11.881Z,39.07
2019-03-03T04:05:47.977Z,37.87
2019-03-03T04:08:18.159Z,38.33
2019-03-03T04:10:48.297Z,37.30
2019-03-03T04:13:35.217Z,43.83
2019-03-03T04:16:05.492Z,39.63
2019-03-03T04:18:54.289Z,39.78
2019-03-03T04:21:30.057Z,40.55
2019-03-03T04:24:00.361Z,45.63
2019-03-03T04:26:48.995Z,46.30
2019-03-03T04:29:19.175Z,51.35
2019-03-03T04:31:58.453Z,42.53
2019-03-03T04:34:34.279Z,47.00
2019-03-03T04:37:26.739Z,45.67
2019-03-03T04:40:02.812Z,50.50
2019-03-03T04:42:33.090Z,49.73
2019-03-03T04:45:09.280Z,45.80
2019-03-03T04:47:39.496Z,42.53
2019-03-03T04:50:10.483Z,49.08
2019-03-03T04:52:46.742Z,45.03
2019-03-03T04:55:16.880Z,44.75
2019-03-03T04:57:47.004Z,43.13
2019-03-03T05:00:23.134Z,49.70
2019-03-03T05:03:02.414Z,47.20
2019-03-03T05:05:47.916Z,44.35
2019-03-03T05:08:27.468Z,39.15
2019-03-03T05:10:57.756Z,45.43
2019-03-03T05:13:27.910Z,47.78
2019-03-03T05:16:04.308Z,53.50
2019-03-03T05:18:46.940Z,47.85
2019-03-03T05:21:15.483Z,53.77
2019-03-03T05:23:43.985Z,54.83
2019-03-03T05:26:12.616Z,47.67
2019-03-03T05:28:41.301Z,50.92
2019-03-03T05:31:09.899Z,51.67
2019-03-03T05:33:38.393Z,52.03
2019-03-03T05:36:09.735Z,47.85
2019-03-03T05:38:38.381Z,46.63
2019-03-03T05:41:06.880Z,50.83
2019-03-03T05:43:35.481Z,59.50
2019-03-03T05:46:04.107Z,52.40
2019-03-03T05:48:32.739Z,60.00
2019-03-03T05:51:01.284Z,57.23
2019-03-03T05:53:29.913Z,50.20
2019-03-03T05:55:58.411Z,52.30
2019-03-03T05:58:26.948Z,63.33
2019-03-03T06:00:55.585Z,49.77
2019-03-03T06:03:24.218Z,52.23
2019-03-03T06:05:52.750Z,50.35
2019-03-03T06:08:21.249Z,44.87
2019-03-03T06:10:49.883Z,46.08
2019-03-03T06:13:18.560Z,50.10
2019-03-03T06:15:47.054Z,49.83
2019-03-03T06:18:15.617Z,45.48
2019-03-03T06:20:44.284Z,44.70
2019-03-03T06:23:12.915Z,56.37
2019-03-03T06:25:41.485Z,51.03
2019-03-03T06:28:10.040Z,55.90
2019-03-03T06:30:38.692Z,52.75
2019-03-03T06:33:07.319Z,55.43
2019-03-03T06:35:36.022Z,53.23
2019-03-03T06:38:04.674Z,70.57
2019-03-03T06:40:33.305Z,73.30
2019-03-03T06:43:02.188Z,72.45
2019-03-03T06:45:30.682Z,66.35
2019-03-03T06:47:59.248Z,52.85
2019-03-03T06:50:28.140Z,50.33
2019-03-03T06:52:56.891Z,54.73
2019-03-03T06:55:25.381Z,64.90
2019-03-03T06:57:53.947Z,55.80
2019-03-03T07:00:22.587Z,54.53
2019-03-03T07:02:51.210Z,46.95
2019-03-03T07:05:19.749Z,59.20
2019-03-03T07:07:48.241Z,58.15
2019-03-03T07:10:16.875Z,66.07
2019-03-03T07:12:45.692Z,55.65
2019-03-03T07:15:16.427Z,53.65
2019-03-03T07:17:45.074Z,67.22
2019-03-03T07:20:16.775Z,67.32
2019-03-03T07:22:45.899Z,51.68
2019-03-03T07:25:15.037Z,58.83
2019-03-03T07:27:43.644Z,56.75
2019-03-03T07:30:14.849Z,55.08
2019-03-03T07:32:48.068Z,36.25
2019-03-03T07:35:16.699Z,37.95
2019-03-03T07:37:45.333Z,36.45
2019-03-03T07:40:14.038Z,36.95
2019-03-03T07:42:42.609Z,42.70
2019-03-03T07:45:15.523Z,35.92
2019-03-03T07:47:44.395Z,36.08
2019-03-03T07:50:13.024Z,29.82
2019-03-03T07:52:41.659Z,45.85
2019-03-03T07:55:11.263Z,34.30
2019-03-03T07:57:39.896Z,36.50
2019-03-03T08:00:13.863Z,27.40
2019-03-03T08:02:42.692Z,32.00
2019-03-03T08:05:12.124Z,34.60
2019-03-03T08:07:40.611Z,31.25
2019-03-03T08:10:16.282Z,36.25
2019-03-03T08:12:44.925Z,32.28
2019-03-03T08:15:19.887Z,33.65
2019-03-03T08:17:48.483Z,31.48
2019-03-03T08:20:19.856Z,34.65
2019-03-03T08:22:48.578Z,28.05
2019-03-03T08:25:17.298Z,37.75
2019-03-03T08:27:45.805Z,42.93
2019-03-03T08:30:18.419Z,39.67
2019-03-03T08:32:47.016Z,25.68
2019-03-03T08:35:20.281Z,32.23
2019-03-03T08:37:48.917Z,30.25
2019-03-03T08:40:17.717Z,30.90
2019-03-03T08:42:50.891Z,34.40
2019-03-03T08:45:37.587Z,30.68
2019-03-03T08:48:13.997Z,28.38
2019-03-03T08:51:00.396Z,33.28
2019-03-03T08:53:36.276Z,36.03
2019-03-03T08:56:09.244Z,41.02
2019-03-03T08:58:42.589Z,36.73
2019-03-03T09:01:12.740Z,31.68
2019-03-03T09:03:46.069Z,34.35
2019-03-03T09:06:16.377Z,39.83
2019-03-03T09:08:58.571Z,33.18
2019-03-03T09:11:28.818Z,37.90
2019-03-03T09:13:59.089Z,31.85
2019-03-03T09:16:29.260Z,33.85
2019-03-03T09:19:15.671Z,33.20
2019-03-03T09:21:51.684Z,33.45
2019-03-03T09:24:31.084Z,36.85
2019-03-03T09:27:19.136Z,39.35
2019-03-03T09:29:58.485Z,33.35
2019-03-03T09:32:28.760Z,33.78
2019-03-03T09:35:08.349Z,32.13
2019-03-03T09:37:41.215Z,44.75
2019-03-03T09:40:28.120Z,35.08
2019-03-03T09:43:16.929Z,33.13
2019-03-03T09:46:03.823Z,31.05
2019-03-03T09:48:50.144Z,34.78
2019-03-03T09:51:23.099Z,32.67
2019-03-03T09:54:09.552Z,32.93
2019-03-03T09:56:39.721Z,24.85
2019-03-03T09:59:16.229Z,28.40
2019-03-03T10:01:49.393Z,27.27
2019-03-03T10:04:19.594Z,24.15
2019-03-03T10:06:49.867Z,29.45
2019-03-03T10:09:20.712Z,27.17
2019-03-03T10:11:51.029Z,25.10
2019-03-03T10:14:37.651Z,33.73
2019-03-03T10:17:13.925Z,22.98
2019-03-03T10:20:02.687Z,28.65
2019-03-03T10:22:33.012Z,22.10
2019-03-03T10:25:03.214Z,20.85
2019-03-03T10:27:36.605Z,25.97
2019-03-03T10:30:25.826Z,22.13
2019-03-03T10:32:56.112Z,21.17
2019-03-03T10:35:26.316Z,21.45
2019-03-03T10:37:59.728Z,28.10
2019-03-03T10:40:38.928Z,20.08
2019-03-03T10:43:18.181Z,24.05
2019-03-03T10:45:54.280Z,14.75
2019-03-03T10:48:33.717Z,13.32
2019-03-03T10:51:20.029Z,15.63
2019-03-03T10:54:06.754Z,11.53
2019-03-03T10:56:37.038Z,13.72
2019-03-03T10:59:22.935Z,16.27
2019-03-03T11:02:05.285Z,15.60
2019-03-03T11:04:47.539Z,15.20
2019-03-03T11:07:20.763Z,20.65
2019-03-03T11:09:51.034Z,17.95
2019-03-03T11:12:24.588Z,18.82
2019-03-03T11:14:58.540Z,23.62
2019-03-03T11:17:47.537Z,28.87
2019-03-03T11:20:33.567Z,15.28
2019-03-03T11:23:21.999Z,16.90
2019-03-03T11:26:01.014Z,21.90
2019-03-03T11:28:40.128Z,15.90
2019-03-03T11:31:35.538Z,17.92
2019-03-03T11:34:05.917Z,19.95
2019-03-03T11:36:36.190Z,21.85
2019-03-03T11:39:15.091Z,18.80
2019-03-03T11:41:51.095Z,13.70
2019-03-03T11:44:38.186Z,21.17
2019-03-03T11:47:17.272Z,16.65
2019-03-03T11:49:50.399Z,13.83
2019-03-03T11:52:23.155Z,15.08
2019-03-03T11:55:00.871Z,18.62
2019-03-03T11:57:34.359Z,15.15
2019-03-03T12:00:17.508Z,16.73
2019-03-03T12:02:56.825Z,10.40
2019-03-03T12:05:27.132Z,10.88
2019-03-03T12:07:57.403Z,11.15
2019-03-03T12:10:27.608Z,12.43
2019-03-03T12:13:00.581Z,9.85
2019-03-03T12:15:33.569Z,13.00
2019-03-03T12:18:03.851Z,16.17
2019-03-03T12:20:37.153Z,15.95
2019-03-03T12:23:10.176Z,12.93
2019-03-03T12:25:40.444Z,12.63
2019-03-03T12:28:13.493Z,8.38
2019-03-03T12:30:43.627Z,11.53
2019-03-03T12:33:29.195Z,11.78
2019-03-03T12:36:02.487Z,18.10
2019-03-03T12:38:32.748Z,9.28
2019-03-03T12:41:03.230Z,6.25
2019-03-03T12:43:33.496Z,8.43
2019-03-03T12:46:12.660Z,14.45
2019-03-03T12:48:42.792Z,9.83
2019-03-03T12:51:29.238Z,13.98
2019-03-03T12:54:05.488Z,17.20
2019-03-03T12:56:44.219Z,9.95
2019-03-03T12:59:16.885Z,13.40
2019-03-03T13:01:49.985Z,11.85
2019-03-03T13:04:20.255Z,20.57
2019-03-03T13:07:06.506Z,10.00
2019-03-03T13:09:55.771Z,10.18
2019-03-03T13:12:26.233Z,10.88
2019-03-03T13:15:07.115Z,10.18
2019-03-03T13:17:37.291Z,13.55
2019-03-03T13:20:10.464Z,15.88
2019-03-03T13:22:58.779Z,12.75
2019-03-03T13:25:31.411Z,13.43
2019-03-03T13:28:10.969Z,22.58
2019-03-03T13:30:43.963Z,15.28
2019-03-03T13:33:19.765Z,17.42
2019-03-03T13:36:06.459Z,11.90
2019-03-03T13:38:39.708Z,8.55
2019-03-03T13:41:16.018Z,18.87
2019-03-03T13:43:44.706Z,13.22
2019-03-03T13:46:13.433Z,17.02
2019-03-03T13:48:42.058Z,16.85
2019-03-03T13:51:10.932Z,12.33
2019-03-03T13:53:39.503Z,7.97
2019-03-03T13:56:08.127Z,15.63
2019-03-03T13:58:37.030Z,15.55
2019-03-03T14:01:05.657Z,10.05
2019-03-03T14:03:34.288Z,11.68
2019-03-03T14:06:03.047Z,9.43
2019-03-03T14:08:31.667Z,9.00
2019-03-03T14:11:00.195Z,11.80
2019-03-03T14:13:28.863Z,8.48
2019-03-03T14:15:57.491Z,7.87
2019-03-03T14:18:26.055Z,10.25
2019-03-03T14:20:54.582Z,15.18
2019-03-03T14:23:23.221Z,14.07
2019-03-03T14:25:51.849Z,14.03
2019-03-03T14:28:20.446Z,10.70
2019-03-03T14:30:48.939Z,8.28
2019-03-03T14:33:17.567Z,11.33
2019-03-03T14:35:46.280Z,15.05
2019-03-03T14:38:14.804Z,11.95
2019-03-03T14:40:43.364Z,18.35
2019-03-03T14:43:13.751Z,15.08
2019-03-03T14:45:42.386Z,11.43
2019-03-03T14:48:11.006Z,10.82
2019-03-03T14:50:39.603Z,12.90
2019-03-03T14:53:08.230Z,18.85
2019-03-03T14:55:36.864Z,16.55
2019-03-03T14:58:05.549Z,9.73
2019-03-03T15:00:34.203Z,10.10
2019-03-03T15:03:04.825Z,8.90
2019-03-03T15:05:33.495Z,14.25
2019-03-03T15:08:01.998Z,7.15
2019-03-03T15:10:30.556Z,13.10
2019-03-03T15:12:59.387Z,14.98
2019-03-03T15:15:39.048Z,15.50
2019-03-03T15:18:07.656Z,17.92
2019-03-03T15:20:36.489Z,9.15
2019-03-03T15:23:05.411Z,12.95
2019-03-03T15:25:34.154Z,16.42
2019-03-03T15:28:02.778Z,9.18
2019-03-03T15:30:31.409Z,13.60
2019-03-03T15:33:00.011Z,11.40
2019-03-03T15:35:28.740Z,11.78
2019-03-03T15:37:57.410Z,14.70
2019-03-03T15:40:27.171Z,15.85
2019-03-03T15:42:55.804Z,17.07
2019-03-03T15:45:29.005Z,18.50
2019-03-03T15:47:57.894Z,22.42
2019-03-03T15:50:26.598Z,25.05
2019-03-03T15:52:55.257Z,27.93
2019-03-03T15:55:25.827Z,18.95
2019-03-03T15:57:54.465Z,21.05
2019-03-03T16:00:34.361Z,21.75
2019-03-03T16:03:12.031Z,15.90
2019-03-03T16:05:40.703Z,24.80
2019-03-03T16:08:09.351Z,22.80
2019-03-03T16:10:38.076Z,20.60
2019-03-03T16:13:06.893Z,22.58
2019-03-03T16:15:35.530Z,22.82
2019-03-03T16:18:04.290Z,26.25
2019-03-03T16:20:32.895Z,33.38
2019-03-03T16:23:01.532Z,27.95
2019-03-03T16:25:30.267Z,32.60
2019-03-03T16:27:58.805Z,28.67
2019-03-03T16:30:27.368Z,29.02
2019-03-03T16:32:56.011Z,29.35
2019-03-03T16:35:30.498Z,30.45
2019-03-03T16:37:58.997Z,33.20
2019-03-03T16:40:28.331Z,33.78
2019-03-03T16:42:56.997Z,33.78
2019-03-03T16:45:25.618Z,32.00
2019-03-03T16:47:54.259Z,33.85
2019-03-03T16:50:23.847Z,37.78
2019-03-03T16:52:52.530Z,30.37
2019-03-03T16:55:22.035Z,30.23
2019-03-03T16:57:50.652Z,32.05
2019-03-03T17:00:21.663Z,47.60
2019-03-03T17:02:50.518Z,32.03
2019-03-03T17:05:29.153Z,38.28
2019-03-03T17:07:57.926Z,37.38
2019-03-03T17:10:26.564Z,38.53
2019-03-03T17:12:55.411Z,28.07
2019-03-03T17:15:25.275Z,35.15
2019-03-03T17:17:53.864Z,24.82
2019-03-03T17:20:22.538Z,25.40
2019-03-03T17:22:51.233Z,17.40
2019-03-03T17:25:22.603Z,25.48
2019-03-03T17:27:51.243Z,25.35
2019-03-03T17:30:22.848Z,15.20
2019-03-03T17:32:51.453Z,16.40
2019-03-03T17:35:20.384Z,17.23
2019-03-03T17:37:49.017Z,27.50
2019-03-03T17:40:21.990Z,21.87
2019-03-03T17:42:50.626Z,19.45
2019-03-03T17:45:21.557Z,20.68
2019-03-03T17:47:50.290Z,18.32
2019-03-03T17:50:23.864Z,25.23
2019-03-03T17:52:52.505Z,29.70
2019-03-03T17:55:21.141Z,15.80
2019-03-03T17:57:49.770Z,22.85
2019-03-03T18:00:21.141Z,17.85
2019-03-03T18:02:49.704Z,17.15
2019-03-03T18:05:19.457Z,22.82
2019-03-03T18:07:48.510Z,19.45
2019-03-03T18:10:17.520Z,22.95
2019-03-03T18:12:46.271Z,22.13
2019-03-03T18:15:16.135Z,36.73
2019-03-03T18:17:44.701Z,23.38
2019-03-03T18:20:15.544Z,19.85
2019-03-03T18:22:44.440Z,15.70
2019-03-03T18:25:15.465Z,23.98
2019-03-03T18:27:44.108Z,16.50
2019-03-03T18:30:24.165Z,25.05
2019-03-03T18:32:52.794Z,19.10
2019-03-03T18:35:21.530Z,18.20
2019-03-03T18:37:50.224Z,22.93
2019-03-03T18:40:23.927Z,22.52
2019-03-03T18:42:52.862Z,22.85
2019-03-03T18:45:24.887Z,19.20
2019-03-03T18:47:53.518Z,14.83
2019-03-03T18:50:24.249Z,13.40
2019-03-03T18:52:53.125Z,14.90
2019-03-03T18:55:21.778Z,19.65
2019-03-03T18:57:50.402Z,16.57
2019-03-03T19:00:29.484Z,14.70
2019-03-03T19:02:58.650Z,15.18
2019-03-03T19:05:27.618Z,19.23
2019-03-03T19:07:56.280Z,14.50
2019-03-03T19:10:27.900Z,16.85
2019-03-03T19:12:56.526Z,13.95
2019-03-03T19:15:25.123Z,21.40
2019-03-03T19:17:53.957Z,17.67
2019-03-03T19:20:22.898Z,20.57
2019-03-03T19:22:51.668Z,20.85
2019-03-03T19:25:32.132Z,21.02
2019-03-03T19:28:00.729Z,19.75
2019-03-03T19:30:30.164Z,20.23
2019-03-03T19:33:01.969Z,21.87
2019-03-03T19:35:30.653Z,17.35
2019-03-03T19:37:59.290Z,22.58
2019-03-03T19:40:27.795Z,18.02
2019-03-03T19:42:56.544Z,17.57
2019-03-03T19:45:30.905Z,14.63
2019-03-03T19:47:59.539Z,19.27
2019-03-03T19:50:28.418Z,21.37
2019-03-03T19:52:57.056Z,20.60
2019-03-03T19:55:25.689Z,20.17
2019-03-03T19:57:54.395Z,21.95
2019-03-03T20:00:35.622Z,19.27
2019-03-03T20:03:02.088Z,17.27
2019-03-03T20:05:30.658Z,23.55
2019-03-03T20:07:59.386Z,21.05
2019-03-03T20:10:28.048Z,22.98
2019-03-03T20:12:56.614Z,24.55
2019-03-03T20:15:25.264Z,18.37
2019-03-03T20:17:53.933Z,20.50
2019-03-03T20:20:22.881Z,22.85
2019-03-03T20:22:51.449Z,22.50
2019-03-03T20:25:20.560Z,25.82
2019-03-03T20:27:49.193Z,20.65
2019-03-03T20:30:20.171Z,18.90
2019-03-03T20:32:48.766Z,18.20
2019-03-03T20:35:17.605Z,23.62
2019-03-03T20:37:47.346Z,16.93
2019-03-03T20:40:17.793Z,16.82
2019-03-03T20:42:46.354Z,23.50
2019-03-03T20:45:26.177Z,15.10
2019-03-03T20:47:54.734Z,17.85
2019-03-03T20:50:23.470Z,19.45
2019-03-03T20:52:52.336Z,22.58
2019-03-03T20:55:26.144Z,19.32
2019-03-03T20:57:54.828Z,19.85
2019-03-03T21:00:26.490Z,19.05
2019-03-03T21:02:55.275Z,26.30
2019-03-03T21:05:23.908Z,25.55
2019-03-03T21:07:52.687Z,21.48
2019-03-03T21:10:23.473Z,19.17
2019-03-03T21:12:52.109Z,37.38
2019-03-03T21:15:20.773Z,27.27
2019-03-03T21:17:49.341Z,20.77
2019-03-03T21:20:19.685Z,17.70
2019-03-03T21:22:48.564Z,17.02
2019-03-03T21:25:18.103Z,19.55
2019-03-03T21:27:46.732Z,16.30
2019-03-03T21:30:18.194Z,22.07
2019-03-03T21:32:46.831Z,21.42
2019-03-03T21:35:15.455Z,29.00
2019-03-03T21:37:44.325Z,16.20
2019-03-03T21:40:15.054Z,21.10
2019-03-03T21:42:43.792Z,18.90
2019-03-03T21:45:23.909Z,14.63
2019-03-03T21:47:52.603Z,17.95
2019-03-03T21:50:31.758Z,14.43
2019-03-03T21:53:00.317Z,23.35
2019-03-03T21:55:28.885Z,18.30
2019-03-03T21:57:57.548Z,17.10
2019-03-03T22:00:28.626Z,31.77
2019-03-03T22:02:57.282Z,21.27
2019-03-03T22:05:26.267Z,77.12
2019-03-03T22:07:54.896Z,22.40
2019-03-03T22:10:25.099Z,23.38
2019-03-03T22:12:54.271Z,14.70
2019-03-03T22:15:25.875Z,19.57
2019-03-03T22:17:54.506Z,18.42
2019-03-03T22:20:23.118Z,23.73
2019-03-03T22:22:51.754Z,17.35
2019-03-03T22:25:20.400Z,19.52
2019-03-03T22:27:48.924Z,14.90
2019-03-03T22:30:19.591Z,19.95
2019-03-03T22:32:48.227Z,20.05
2019-03-03T22:35:16.900Z,16.50
2019-03-03T22:37:45.468Z,20.37
2019-03-03T22:40:21.264Z,18.85
2019-03-03T22:42:49.891Z,15.48
2019-03-03T22:45:19.020Z,22.65
2019-03-03T22:50:23.361Z,22.32
2019-03-03T22:52:51.991Z,19.60
2019-03-03T22:55:21.625Z,20.20
2019-03-03T22:57:50.232Z,15.67
2019-03-03T23:00:29.299Z,21.97
2019-03-03T23:02:58.128Z,21.55
2019-03-03T23:05:32.652Z,18.32
2019-03-03T23:08:04.329Z,22.90
2019-03-03T23:10:44.617Z,23.62
2019-03-03T23:13:31.200Z,23.83
2019-03-03T23:16:23.832Z,21.00
2019-03-03T23:19:13.346Z,19.45
2019-03-03T23:22:00.132Z,18.80
2019-03-03T23:24:49.905Z,19.53
2019-03-03T23:27:18.402Z,23.35
2019-03-03T23:29:47.031Z,23.35
2019-03-03T23:32:16.455Z,22.48
2019-03-03T23:34:44.954Z,20.72
2019-03-03T23:37:13.446Z,16.45
2019-03-03T23:39:42.115Z,16.90
2019-03-03T23:42:10.749Z,18.77
2019-03-03T23:44:39.251Z,18.73
2019-03-03T23:47:07.918Z,17.67
2019-03-03T23:49:36.551Z,17.05
2019-03-03T23:52:05.111Z,17.17
2019-03-03T23:54:33.654Z,20.00
2019-03-03T23:57:02.153Z,23.65
2019-03-03T23:59:30.779Z,17.43
